Selected Arizona METAR Reports


Metar stations are listed by distance from this station - near to far. The 'official' reporting station for the Greater Phoenix area is KPHX - Phoenix/Sky Harbor.

KDVT - Phoenix/Deer Valley, Arizona, USA
Distance from station: NW 4mi, 7km
Updated: Sat 23 Feb 2019 2153 MST
Clear
Clear
 Wind from calm
Wind: Calm
Temperature: 43°F , 6°C
Dew Point: 28°F , -2°C
Humidity: 57%
Barometer: 30.28 inHg , 1025.4 hPa
Clouds: Clear
Visibility: 10 miles , 16 km
2019/02/24 04:53 KDVT 240453Z AUTO 00000KT 10SM CLR 06/M02 A3028 RMK AO2 SLP250 T00561022
KSDL - Scottsdale, Arizona, USA
Distance from station: ESE 6mi, 9km
Updated: Sat 23 Feb 2019 2153 MST
Clear
Clear
 Wind from calm
Wind: Calm
Temperature: 43°F , 6°C
Dew Point: 28°F , -2°C
Humidity: 57%
Barometer: 30.25 inHg , 1024.4 hPa
Clouds: Clear
Visibility: 10 miles , 16 km
2019/02/24 04:53 KSDL 240453Z AUTO 00000KT 10SM CLR 06/M02 A3025 RMK AO2 SLP241 T00611017
 
KPHX - Phoenix/Sky Harbor, Arizona, USA
Distance from station: S 15mi, 24km
Updated: Sat 23 Feb 2019 2151 MST
Clear
Clear
 Wind from E
Wind: E 7 mph , 11 km/h
Temperature: 46°F , 8°C
Wind Chill: 42°F , 6°C
Dew Point: 34°F , 1°C
Humidity: 62%
Barometer: 30.26 inHg , 1024.7 hPa
Clouds: Clear
Visibility: 10 miles , 16 km
2019/02/24 04:51 KPHX 240451Z 09006KT 10SM CLR 08/01 A3026 RMK AO2 SLP247 T00780011 $
KGEU - Glendale, Arizona, USA
Distance from station: WSW 19mi, 30km
Updated: Sat 23 Feb 2019 1648 MST
NOT Current
Clear
Clear
 Wind from calm
Wind: Calm
Temperature: 55°F , 13°C
Dew Point: 28°F , -2°C
Humidity: 36%
Barometer: 30.26 inHg , 1024.7 hPa
Clouds: Clear
Visibility: 10 miles , 16 km
2019/02/23 23:48 KGEU 232348Z 00000KT 10SM SKC 13/M02 A3026
 
KFFZ - Mesa/Falcon Field, Arizona, USA
Distance from station: SE 21mi, 33km
Updated: Sat 23 Feb 2019 2154 MST
Clear
Clear
 Wind from NE
Wind: NE 12 mph , 19 km/h
Temperature: 45°F , 7°C
Wind Chill: 39°F , 4°C
Dew Point: 28°F , -2°C
Humidity: 53%
Barometer: 30.27 inHg , 1025.1 hPa
Clouds: Clear
Visibility: 10 miles , 16 km
2019/02/24 04:54 KFFZ 240454Z AUTO 04010KT 10SM CLR 07/M02 A3027 RMK AO2 SLP245 T00671017
KLUF - Luke AFB/Glendale, Arizona, USA
Distance from station: WSW 23mi, 36km
Updated: Sat 23 Feb 2019 2058 MST
Clear
Clear
 Wind from N
Wind: N 5 mph , 7 km/h
Temperature: 45°F , 7°C
Wind Chill: 42°F , 6°C
Dew Point: 39°F , 4°C
Humidity: 81%
Barometer: 30.25 inHg , 1024.4 hPa
Clouds: Clear
Visibility: 10 miles , 16 km
2019/02/24 03:58 KLUF 240358Z AUTO 35004KT 10SM CLR 07/04 A3025 RMK AO2 SLP247 T00700038 $
 
KGYR - Goodyear Municipal, Arizona, USA
Distance from station: SW 26mi, 42km
Updated: Sat 23 Feb 2019 1647 MST
NOT Current
Clear
Clear
 Wind from calm
Wind: Calm
Temperature: 55°F , 13°C
Dew Point: 32°F , 0°C
Humidity: 41%
Barometer: 30.27 inHg , 1025.1 hPa
Clouds: Clear
Visibility: 10 miles , 16 km
2019/02/23 23:47 KGYR 232347Z 00000KT 10SM SKC 13/00 A3027
KIWA - Chandler/Mesa, Arizona, USA
Distance from station: SE 32mi, 51km
Updated: Sat 23 Feb 2019 2147 MST
Few Clouds
Few Clouds
 Wind from varies
Wind: varies 5 mph , 7 km/h
Temperature: 45°F , 7°C
Wind Chill: 42°F , 6°C
Dew Point: 36°F , 2°C
Humidity: 71%
Barometer: 30.28 inHg , 1025.4 hPa
Clouds: Few Clouds
Visibility: 20 miles , 32 km
Cloud details: Few Clouds 25000 ft
2019/02/24 04:47 KIWA 240447Z VRB04KT 20SM FEW250 07/02 A3028
 
KBXK - Buckeye, Arizona, USA
Distance from station: WSW 42mi, 68km
Updated: Sat 23 Feb 2019 2155 MST
Clear
Clear
 Wind from NNE
Wind: NNE 7 mph , 11 km/h
Temperature: 41°F , 5°C
Wind Chill: 36°F , 2°C
Dew Point: 36°F , 2°C
Humidity: 81%
Barometer: 30.30 inHg , 1026.1 hPa
Clouds: Clear
Visibility: 10 miles , 16 km
2019/02/24 04:55 KBXK 240455Z AUTO 02006KT 10SM CLR 05/02 A3030 RMK AO1
KCGZ - Casa Grande, Arizona, USA
Distance from station: SSE 50mi, 81km
Updated: Sat 23 Feb 2019 2156 MST
Clear
Clear
 Wind from N
Wind: N 8 mph , 13 km/h
Temperature: 43°F , 6°C
Wind Chill: 38°F , 3°C
Dew Point: 34°F , 1°C
Humidity: 71%
Barometer: 30.27 inHg , 1025.1 hPa
Clouds: Clear
Visibility: 10 miles , 16 km
2019/02/24 04:56 KCGZ 240456Z AUTO 36007KT 10SM CLR 06/01 A3027 RMK AO2 SLP257 T00610006 PNO $
 
KPAN - Payson, Arizona, USA
Distance from station: NE 57mi, 91km
Updated: Sat 23 Feb 2019 2155 MST
Clear
Clear
 Wind from calm
Wind: Calm
Temperature: 25°F , -4°C
Dew Point: 23°F , -5°C
Humidity: 93%
Barometer: 30.24 inHg , 1024 hPa
Clouds: Clear
Visibility: 10 miles , 16 km
2019/02/24 04:55 KPAN 240455Z AUTO 00000KT 10SM CLR M04/M05 A3024 RMK AO2
KGBN - Gila Bend (aaf), Arizona, USA
Distance from station: SW 68mi, 109km
Updated: Thu 20 Jul 2017 0757 MST
NOT Current
Partly cloudy
Partly cloudy
 Wind from calm
Wind: Calm
Temperature: 86°F , 30°C
Heat Index: 89°F , 32°C
Dew Point: 68°F , 20°C
Humidity: 55%
Barometer: 29.97 inHg , 1014.9 hPa
Clouds: Partly cloudy
Visibility: 10 miles , 16 km
Cloud details: Few Clouds 10000 ft
Partly cloudy 15000 ft
2017/07/20 14:57 KGBN 201457Z 00000KT 10SM FEW100 SCT150 30/20 A2997 RMK A02 NO SLP
 
KPRC - Prescott, Arizona, USA
Distance from station: NNW 73mi, 118km
Updated: Sat 23 Feb 2019 2153 MST
Clear
Clear
 Wind from SSW
Wind: SSW 3 mph , 6 km/h
Temperature: 18°F , -8°C
Dew Point: 14°F , -10°C
Humidity: 86%
Barometer: 30.25 inHg , 1024.4 hPa
Clouds: Clear
Visibility: 10 miles , 16 km
2019/02/24 04:53 KPRC 240453Z 20003KT 10SM CLR M08/M10 A3025 RMK AO2 SLP271 T10781100
KSEZ - Sedona, Arizona, USA
Distance from station: N 84mi, 135km
Updated: Sat 23 Feb 2019 2155 MST
Clear
Clear
 Wind from NNE
Wind: NNE 9 mph , 15 km/h
Temperature: 30°F , -1°C
Wind Chill: 22°F , -6°C
Dew Point: 25°F , -4°C
Humidity: 80%
Barometer: 30.26 inHg , 1024.7 hPa
Clouds: Clear
Visibility: 10 miles , 16 km
2019/02/24 04:55 KSEZ 240455Z AUTO 03008KT 10SM CLR M01/M04 A3026 RMK AO2
 
KFLG - Flagstaff, Arizona, USA
Distance from station: N 105mi, 168km
Updated: Sat 23 Feb 2019 2157 MST
Clear
Clear
 Wind from calm
Wind: Calm
Temperature: 10°F , -12°C
Dew Point: 7°F , -14°C
Humidity: 85%
Barometer: 30.23 inHg , 1023.7 hPa
Clouds: Clear
Visibility: 10 miles , 16 km
2019/02/24 04:57 KFLG 240457Z AUTO 00000KT 10SM CLR M12/M14 A3023 RMK AO2 SLP270 I1000 T11171144
KRYN - Tucson/Ryan Field, Arizona, USA
Distance from station: SSE 114mi, 184km
Updated: Sat 23 Feb 2019 1845 MST
NOT Current
Clear
Clear
 Wind from WNW
Wind: WNW 5 mph , 7 km/h
Temperature: 46°F , 8°C
Wind Chill: 44°F , 7°C
Dew Point: 32°F , 0°C
Humidity: 57%
Barometer: 30.24 inHg , 1024 hPa
Clouds: Clear
Visibility: 10 miles , 16 km
2019/02/24 01:45 KRYN 240145Z 30004KT 10SM CLR 08/00 A3024
 
KCMR - Williams Clark, Arizona, USA
Distance from station: N 115mi, 185km
Updated: Sat 23 Feb 2019 2155 MST
Clear
Clear
 Wind from SSE
Wind: SSE 8 mph , 13 km/h
Temperature: 10°F , -12°C
Wind Chill: -2°F , -19°C
Dew Point: 7°F , -14°C
Humidity: 85%
Barometer: 30.21 inHg , 1023 hPa
Clouds: Clear
Visibility: 10 miles , 16 km
2019/02/24 04:55 KCMR 240455Z AUTO 16007KT 10SM CLR M12/M14 A3021 RMK AO2
KINW - Winslow, Arizona, USA
Distance from station: NE 121mi, 194km
Updated: Sat 23 Feb 2019 2156 MST
Clear
Clear
 Wind from ESE
Wind: ESE 7 mph , 11 km/h
Temperature: 21°F , -6°C
Wind Chill: 12°F , -11°C
Dew Point: 18°F , -8°C
Humidity: 86%
Barometer: 30.29 inHg , 1025.7 hPa
Clouds: Clear
Visibility: 10 miles , 16 km
2019/02/24 04:56 KINW 240456Z AUTO 12006KT 10SM CLR M06/M08 A3029 RMK AO2 SLP303 T10611083
 
KTUS - Tucson, Arizona, USA
Distance from station: SSE 121mi, 195km
Updated: Sat 23 Feb 2019 2153 MST
Clear
Clear
 Wind from ESE
Wind: ESE 9 mph , 15 km/h
Temperature: 43°F , 6°C
Wind Chill: 38°F , 3°C
Dew Point: 28°F , -2°C
Humidity: 57%
Barometer: 30.24 inHg , 1024 hPa
Clouds: Clear
Visibility: 10 miles , 16 km
2019/02/24 04:53 KTUS 240453Z 11008KT 10SM CLR 06/M02 A3024 RMK AO2 SLP237 T00561017
KDMA - Davis AFB/Tucson, Arizona, USA
Distance from station: SE 122mi, 196km
Updated: Sat 23 Feb 2019 2158 MST
Clear
Clear
 Wind from SE
Wind: SE 12 mph , 19 km/h
Temperature: 39°F , 4°C
Wind Chill: 32°F , 0°C
Dew Point: 30°F , -1°C
Humidity: 70%
Barometer: 30.23 inHg , 1023.7 hPa
Clouds: Clear
Visibility: 10 miles , 16 km
2019/02/24 04:58 KDMA 240458Z AUTO 13010KT 10SM CLR 04/M01 A3023 RMK AO2 SLP240 T00391013 $
 
KSOW - Show Low Municipal, Arizona, USA
Distance from station: ENE 123mi, 198km
Updated: Sat 23 Feb 2019 2155 MST
Light drizzle, Clear
Light drizzle, Clear
 Wind from calm
Wind: Calm
Temperature: 12°F , -11°C
Dew Point: 5°F , -15°C
Humidity: 73%
Barometer: 30.26 inHg , 1024.7 hPa
Summary: Light Drizzle
Clouds: Clear
Visibility: 10 miles , 16 km
2019/02/24 04:55 KSOW 240455Z AUTO 00000KT 10SM -DZ CLR M11/M15 A3026 RMK AO2
KSAD - Safford, Arizona, USA
Distance from station: ESE 148mi, 238km
Updated: Sat 23 Feb 2019 2151 MST
Clear
Clear
 Wind from varies
Wind: varies 3 mph , 6 km/h
Temperature: 34°F , 1°C
Dew Point: 30°F , -1°C
Humidity: 87%
Barometer: 30.26 inHg , 1024.7 hPa
Clouds: Clear
Visibility: 10 miles , 16 km
2019/02/24 04:51 KSAD 240451Z AUTO VRB03KT 10SM CLR 01/M01 A3026 RMK AO2 SLP250 T00061011